Airfield :







YOU CAN JOIN US ON...

 
LOGIN :

Register | Disclaimer

   EN    FR    IT 

 









Legend :    VFR   Marginal VFR   IFR   Intensive IFR   Very Intensive IFR
Visi :
Ceiling :
>= 8 km
>= 3000ft
5 to 8 km
1000 to 3000 ft
1500m to 5 km
500 to 1000 ft
800 to 1500m
200 to 500 ft
< 800m
< 200 ft
Symbols :   Thunderstorms  Fog  Heavy snow  Heavy precipitations  Wind > 20 kt






- Airport Elevation : 787 ft
- IATA code : RUT


KRUT - Rutland - Southern Vermont Regional

CURRENT METAR :
  • 121856Z AUTO 28011G15KT 10SM CLR 28/17 A2964 RMK AO2 SLP026 T02830172 $

EXPIRED METARs :
  • 121756Z AUTO 27014G17KT 10SM FEW060 27/17 A2965 RMK AO2 SLP030 T02720172 10278 20222 51005 $
  • 121656Z AUTO 26014G22KT 10SM FEW042 SCT050 BKN070 27/18 A2965 RMK AO2 SLP029 T02720183 $

TAF KRUT
Valid from the 12 at 18:00 until the 13 at 18:00 UTC


121741Z 1218/1318 26012G22KT P6SM SCT050
FM130200 13005KT P6SM SCT150
FM131600 25006KT P6SM BKN050
KZBW FIR / North America



MET'MAP, your aeronautical weather chart ! - Copyright ORBIFLY December 2007 - Disclaimer

ORBIFLY MET'MAP TEAM :

Programming & Development : Alexandra Zaïnal
Concept & original design : Baudouin d'Aumeries
Assistance for programming : Marc-Olivier Méhu
Technical & hardware support : Manuel Goepfert

Contact : metmap@orbifly.com




SOURCES & CREDITS :

   NOAA